createdAt,value
2023-04-05T00:01:55.725Z,98879.06
2023-04-05T00:05:00.906Z,98878.66
2023-04-05T00:08:08.501Z,98875.34
2023-04-05T00:11:12.057Z,98876.81
2023-04-05T00:14:15.649Z,98881.44
2023-04-05T00:17:19.345Z,98877.41
2023-04-05T00:20:22.970Z,98887.88
2023-04-05T00:23:28.473Z,98879.31
2023-04-05T00:26:32.391Z,98888.00
2023-04-05T00:29:36.154Z,98877.78
2023-04-05T00:32:39.850Z,98882.19
2023-04-05T00:35:43.592Z,98888.41
2023-04-05T00:38:50.801Z,98884.25
2023-04-05T00:41:54.312Z,98890.31
2023-04-05T00:44:57.865Z,98889.28
2023-04-05T00:48:02.084Z,98889.22
2023-04-05T00:51:09.678Z,98890.75
2023-04-05T00:54:15.882Z,98890.78
2023-04-05T00:57:20.322Z,98886.84
2023-04-05T01:00:24.662Z,98898.69
2023-04-05T01:03:31.349Z,98889.47
2023-04-05T01:07:01.180Z,98898.97
2023-04-05T01:10:09.410Z,98898.50
2023-04-05T01:13:13.089Z,98897.13
2023-04-05T01:16:17.072Z,98897.38
2023-04-05T01:19:20.706Z,98904.06
2023-04-05T01:23:06.316Z,98897.75
2023-04-05T01:26:42.263Z,98898.03
2023-04-05T01:30:05.110Z,98892.53
2023-04-05T01:33:16.612Z,98901.63
2023-04-05T01:36:25.401Z,98897.47
2023-04-05T01:39:29.771Z,98902.94
2023-04-05T01:42:33.523Z,98902.09
2023-04-05T01:45:38.621Z,98909.72
2023-04-05T01:48:42.148Z,98906.97
2023-04-05T01:51:45.851Z,98902.94
2023-04-05T01:54:49.396Z,98910.91
2023-04-05T01:57:53.865Z,98908.28
2023-04-05T02:00:59.163Z,98918.41
2023-04-05T02:04:02.700Z,98913.97
2023-04-05T02:07:07.755Z,98919.53
2023-04-05T02:10:11.615Z,98919.13
2023-04-05T02:13:16.279Z,98920.50
2023-04-05T02:16:21.381Z,98920.41
2023-04-05T02:19:26.169Z,98920.25
2023-04-05T02:22:30.026Z,98924.34
2023-04-05T02:25:33.958Z,98933.50
2023-04-05T02:28:37.472Z,98933.66
2023-04-05T02:31:42.572Z,98934.47
2023-04-05T02:34:46.475Z,98938.06
2023-04-05T02:37:50.147Z,98942.84
2023-04-05T02:40:53.714Z,98940.81
2023-04-05T02:43:57.158Z,98949.66
2023-04-05T02:47:02.068Z,98949.53
2023-04-05T02:50:09.800Z,98948.69
2023-04-05T02:53:19.557Z,98948.44
2023-04-05T02:56:30.644Z,98949.78
2023-04-05T02:59:36.852Z,98942.56
2023-04-05T03:02:42.973Z,98956.66
2023-04-05T03:05:47.373Z,98952.97
2023-04-05T03:08:52.265Z,98951.19
2023-04-05T03:12:03.824Z,98963.22
2023-04-05T03:15:11.044Z,98952.22
2023-04-05T03:18:20.765Z,98962.25
2023-04-05T03:21:26.762Z,98977.53
2023-04-05T03:24:42.723Z,98967.03
2023-04-05T03:27:49.094Z,98974.94
2023-04-05T03:30:54.624Z,98967.16
2023-04-05T03:33:59.936Z,98974.66
2023-04-05T03:37:07.790Z,98969.47
2023-04-05T03:40:20.994Z,98974.38
2023-04-05T03:43:25.780Z,98971.00
2023-04-05T03:46:29.345Z,98969.22
2023-04-05T03:49:34.392Z,98968.38
2023-04-05T03:52:37.918Z,98971.38
2023-04-05T03:55:43.552Z,98974.66
2023-04-05T03:58:47.901Z,98971.41
2023-04-05T04:01:53.490Z,98978.78
2023-04-05T04:05:01.240Z,98980.69
2023-04-05T04:08:05.308Z,98986.28
2023-04-05T04:11:09.068Z,98987.53
2023-04-05T04:14:15.697Z,98993.66
2023-04-05T04:17:48.382Z,98993.50
2023-04-05T04:21:12.518Z,99002.94
2023-04-05T04:24:46.583Z,98996.81
2023-04-05T04:28:06.886Z,99004.59
2023-04-05T04:31:29.433Z,99015.09
2023-04-05T04:34:34.876Z,99019.84
2023-04-05T04:38:10.548Z,99020.53
2023-04-05T04:41:27.349Z,99011.03
2023-04-05T04:44:46.273Z,99021.66
2023-04-05T04:48:00.160Z,99024.38
2023-04-05T04:51:15.988Z,99027.66
2023-04-05T04:54:22.602Z,99027.63
2023-04-05T04:57:27.318Z,99032.31
2023-04-05T05:00:31.693Z,99038.06
2023-04-05T05:03:36.769Z,99041.59
2023-04-05T05:06:40.541Z,99043.34
2023-04-05T05:09:45.908Z,99040.94
2023-04-05T05:12:49.892Z,99045.84
2023-04-05T05:15:53.845Z,99046.38
2023-04-05T05:18:57.637Z,99042.03
2023-04-05T05:22:04.652Z,99049.81
2023-04-05T05:25:12.564Z,99044.34
2023-04-05T05:28:16.809Z,99055.66
2023-04-05T05:31:20.484Z,99059.38
2023-04-05T05:34:24.718Z,99048.44
2023-04-05T05:37:33.752Z,99053.91
2023-04-05T05:40:39.182Z,99058.25
2023-04-05T05:43:42.996Z,99054.44
2023-04-05T05:46:46.775Z,99052.13
2023-04-05T05:49:50.939Z,99056.66
2023-04-05T05:52:54.871Z,99056.34
2023-04-05T05:56:01.288Z,99061.09
2023-04-05T05:59:05.134Z,99057.00
2023-04-05T06:02:15.302Z,99053.94
2023-04-05T06:05:19.344Z,99055.34
2023-04-05T06:08:23.086Z,99056.13
2023-04-05T06:11:28.335Z,99062.06
2023-04-05T06:14:31.983Z,99060.16
2023-04-05T06:17:42.141Z,99059.44
2023-04-05T06:20:45.901Z,99060.69
2023-04-05T06:23:49.856Z,99071.63
2023-04-05T06:26:55.047Z,99074.84
2023-04-05T06:30:01.385Z,99070.13
2023-04-05T06:33:05.156Z,99066.28
2023-04-05T06:36:09.457Z,99074.78
2023-04-05T06:39:13.719Z,99069.13
2023-04-05T06:42:19.010Z,99081.47
2023-04-05T06:45:29.709Z,99079.91
2023-04-05T06:48:35.246Z,99088.19
2023-04-05T06:51:38.962Z,99084.34
2023-04-05T06:54:42.768Z,99088.72
2023-04-05T06:57:47.910Z,99088.91
2023-04-05T07:00:51.694Z,99102.84
2023-04-05T07:03:55.947Z,99106.78
2023-04-05T07:07:02.282Z,99117.94
2023-04-05T07:10:06.745Z,99114.22
2023-04-05T07:13:11.799Z,99115.59
2023-04-05T07:16:15.583Z,99120.94
2023-04-05T07:19:19.349Z,99123.13
2023-04-05T07:22:23.019Z,99117.91
2023-04-05T07:25:26.750Z,99129.53
2023-04-05T07:28:32.152Z,99123.34
2023-04-05T07:31:35.996Z,99128.75
2023-04-05T07:34:39.673Z,99136.94
2023-04-05T07:37:43.423Z,99132.84
2023-04-05T07:40:47.234Z,99135.47
2023-04-05T07:43:52.454Z,99141.25
2023-04-05T07:46:56.214Z,99144.44
2023-04-05T07:50:00.081Z,99149.13
2023-04-05T07:53:03.919Z,99153.06
2023-04-05T07:56:08.776Z,99148.25
2023-04-05T07:59:15.009Z,99148.19
2023-04-05T08:02:19.210Z,99169.41
2023-04-05T08:05:23.067Z,99153.31
2023-04-05T08:08:26.890Z,99153.06
2023-04-05T08:11:30.714Z,99157.56
2023-04-05T08:14:36.048Z,99163.00
2023-04-05T08:17:39.745Z,99160.13
2023-04-05T08:20:43.635Z,99157.66
2023-04-05T08:23:47.430Z,99159.13
2023-04-05T08:26:51.128Z,99155.91
2023-04-05T08:29:56.281Z,99168.84
2023-04-05T08:33:00.200Z,99171.88
2023-04-05T08:36:07.731Z,99165.06
2023-04-05T08:39:11.730Z,99171.00
2023-04-05T08:42:18.888Z,99167.91
2023-04-05T08:45:25.931Z,99176.59
2023-04-05T08:48:33.131Z,99182.75
2023-04-05T08:51:40.545Z,99176.59
2023-04-05T08:54:44.277Z,99180.69
2023-04-05T08:57:55.736Z,99184.19
2023-04-05T09:01:01.769Z,99186.06
2023-04-05T09:04:08.439Z,99186.34
2023-04-05T09:07:14.881Z,99192.66
2023-04-05T09:10:20.976Z,99198.34
2023-04-05T09:13:24.625Z,99205.78
2023-04-05T09:16:30.466Z,99207.75
2023-04-05T09:19:34.220Z,99211.28
2023-04-05T09:22:45.487Z,99207.13
2023-04-05T09:25:52.852Z,99197.97
2023-04-05T09:28:56.665Z,99213.75
2023-04-05T09:32:02.339Z,99204.44
2023-04-05T09:35:06.925Z,99208.69
2023-04-05T09:38:12.494Z,99199.59
2023-04-05T09:41:16.225Z,99210.25
2023-04-05T09:44:20.005Z,99215.47
2023-04-05T09:47:27.810Z,99206.97
2023-04-05T09:50:35.227Z,99211.00
2023-04-05T09:53:59.128Z,99205.78
2023-04-05T09:57:03.644Z,99205.84
2023-04-05T10:00:10.819Z,99202.50
2023-04-05T10:03:27.650Z,99199.09
2023-04-05T10:06:37.841Z,99214.03
2023-04-05T10:09:42.528Z,99203.63
2023-04-05T10:12:48.430Z,99212.13
2023-04-05T10:15:54.447Z,99202.13
2023-04-05T10:18:59.738Z,99210.84
2023-04-05T10:22:05.618Z,99213.91
2023-04-05T10:25:19.728Z,99212.47
2023-04-05T10:28:31.562Z,99203.91
2023-04-05T10:31:41.929Z,99195.19
2023-04-05T10:34:59.073Z,99202.34
2023-04-05T10:38:13.605Z,99215.78
2023-04-05T10:41:17.731Z,99214.66
2023-04-05T10:44:26.474Z,99216.56
2023-04-05T10:47:33.291Z,99210.19
2023-04-05T10:50:39.907Z,99218.59
2023-04-05T10:53:44.529Z,99222.91
2023-04-05T10:56:48.778Z,99221.41
2023-04-05T10:59:55.048Z,99220.22
2023-04-05T11:02:58.951Z,99218.09
2023-04-05T11:06:22.826Z,99218.16
2023-04-05T11:09:27.783Z,99218.44
2023-04-05T11:13:06.325Z,99222.19
2023-04-05T11:16:10.710Z,99213.81
2023-04-05T11:19:14.571Z,99223.00
2023-04-05T11:22:27.675Z,99221.72
2023-04-05T11:25:31.554Z,99219.19
2023-04-05T11:28:39.771Z,99222.25
2023-04-05T11:32:02.119Z,99235.13
2023-04-05T11:35:08.278Z,99225.81
2023-04-05T11:38:23.610Z,99225.16
2023-04-05T11:41:34.982Z,99220.38
2023-04-05T11:44:47.078Z,99236.63
2023-04-05T11:47:51.279Z,99231.69
2023-04-05T11:50:56.191Z,99226.53
2023-04-05T11:54:01.321Z,99222.91
2023-04-05T11:57:05.609Z,99227.31
2023-04-05T12:00:10.500Z,99222.50
2023-04-05T12:03:15.777Z,99219.03
2023-04-05T12:06:23.889Z,99225.94
2023-04-05T12:09:29.109Z,99220.38
2023-04-05T12:12:38.551Z,99224.47
2023-04-05T12:15:42.574Z,99225.47
2023-04-05T12:18:46.560Z,99219.94
2023-04-05T12:21:50.265Z,99222.78
2023-04-05T12:24:55.532Z,99221.06
2023-04-05T12:28:06.143Z,99227.31
2023-04-05T12:31:12.449Z,99229.69
2023-04-05T12:34:24.909Z,99227.03
2023-04-05T12:37:29.731Z,99224.88
2023-04-05T12:40:36.205Z,99225.22
2023-04-05T12:43:41.097Z,99229.00
2023-04-05T12:46:47.110Z,99218.19
2023-04-05T12:49:50.831Z,99219.78
2023-04-05T12:52:56.240Z,99231.47
2023-04-05T12:56:02.032Z,99223.28
2023-04-05T12:59:08.792Z,99220.44
2023-04-05T13:02:12.663Z,99220.91
2023-04-05T13:05:16.452Z,99230.72
2023-04-05T13:08:20.554Z,99232.63
2023-04-05T13:11:26.072Z,99231.38
2023-04-05T13:14:29.845Z,99236.13
2023-04-05T13:17:33.662Z,99231.84
2023-04-05T13:20:38.013Z,99234.34
2023-04-05T13:23:42.454Z,99232.06
2023-04-05T13:26:47.523Z,99245.81
2023-04-05T13:29:51.258Z,99235.88
2023-04-05T13:32:54.995Z,99234.28
2023-04-05T13:35:58.838Z,99226.00
2023-04-05T13:39:02.518Z,99221.28
2023-04-05T13:42:07.872Z,99229.47
2023-04-05T13:45:12.341Z,99227.56
2023-04-05T13:48:16.014Z,99232.47
2023-04-05T13:51:19.722Z,99232.31
2023-04-05T13:54:23.371Z,99232.75
2023-04-05T13:57:28.695Z,99234.91
2023-04-05T14:00:32.404Z,99234.81
2023-04-05T14:03:36.226Z,99234.31
2023-04-05T14:06:40.153Z,99229.25
2023-04-05T14:09:45.009Z,99233.56
2023-04-05T14:12:50.003Z,99230.59
2023-04-05T14:15:53.996Z,99233.88
2023-04-05T14:18:57.718Z,99233.03
2023-04-05T14:22:02.268Z,99234.03
2023-04-05T14:25:08.328Z,99221.63
2023-04-05T14:28:13.621Z,99225.06
2023-04-05T14:31:17.606Z,99225.16
2023-04-05T14:34:21.505Z,99221.63
2023-04-05T14:37:25.272Z,99222.44
2023-04-05T14:40:29.037Z,99224.78
2023-04-05T14:43:34.300Z,99225.75
2023-04-05T14:46:38.210Z,99228.34
2023-04-05T14:49:42.287Z,99227.00
2023-04-05T14:52:46.851Z,99235.28
2023-04-05T14:55:50.652Z,99237.47
2023-04-05T14:58:56.008Z,99237.69
2023-04-05T15:01:59.835Z,99242.63
2023-04-05T15:05:03.762Z,99242.50
2023-04-05T15:08:07.536Z,99242.69
2023-04-05T15:11:11.403Z,99238.72
2023-04-05T15:14:28.660Z,99238.72
2023-04-05T15:17:35.351Z,99237.06
2023-04-05T15:20:39.600Z,99231.69
2023-04-05T15:23:43.336Z,99242.19
2023-04-05T15:26:47.045Z,99242.97
2023-04-05T15:29:52.336Z,99245.03
2023-04-05T15:32:57.034Z,99248.13
2023-04-05T15:36:00.898Z,99256.34
2023-04-05T15:39:05.494Z,99249.84
2023-04-05T15:42:09.367Z,99251.72
2023-04-05T15:45:14.699Z,99257.75
2023-04-05T15:48:18.408Z,99269.50
2023-04-05T15:51:22.195Z,99267.56
2023-04-05T15:54:26.001Z,99261.22
2023-04-05T15:57:29.756Z,99268.31
2023-04-05T16:00:35.091Z,99259.88
2023-04-05T16:03:39.032Z,99260.78
2023-04-05T16:06:43.683Z,99255.59
2023-04-05T16:09:47.440Z,99268.03
2023-04-05T16:12:51.364Z,99263.81
2023-04-05T16:15:56.721Z,99272.81
2023-04-05T16:19:01.536Z,99282.34
2023-04-05T16:22:06.401Z,99272.03
2023-04-05T16:25:10.339Z,99274.16
2023-04-05T16:28:14.395Z,99282.06
2023-04-05T16:31:19.702Z,99275.00
2023-04-05T16:34:23.521Z,99278.69
2023-04-05T16:37:27.212Z,99272.94
2023-04-05T16:40:31.417Z,99279.63
2023-04-05T16:43:35.313Z,99286.00
2023-04-05T16:46:40.623Z,99285.06
2023-04-05T16:49:44.369Z,99281.66
2023-04-05T16:52:48.094Z,99286.88
2023-04-05T16:55:51.982Z,99289.19
2023-04-05T16:58:56.991Z,99288.19
2023-04-05T17:02:02.289Z,99295.22
2023-04-05T17:05:07.135Z,99301.91
2023-04-05T17:08:10.979Z,99302.84
2023-04-05T17:11:14.819Z,99293.47
2023-04-05T17:14:18.640Z,99295.91
2023-04-05T17:17:23.935Z,99303.63
2023-04-05T17:20:27.763Z,99307.88
2023-04-05T17:23:31.459Z,99308.56
2023-04-05T17:26:35.157Z,99309.13
2023-04-05T17:29:40.257Z,99320.06
2023-04-05T17:32:45.529Z,99322.56
2023-04-05T17:35:49.332Z,99321.75
2023-04-05T17:38:53.185Z,99321.31
2023-04-05T17:41:57.000Z,99328.31
2023-04-05T17:45:00.852Z,99332.00
2023-04-05T17:48:06.648Z,99332.81
2023-04-05T17:51:10.840Z,99332.16
2023-04-05T17:54:15.730Z,99325.56
2023-04-05T17:57:19.706Z,99335.97
2023-04-05T18:00:23.831Z,99330.22
2023-04-05T18:03:29.801Z,99341.59
2023-04-05T18:06:33.616Z,99348.00
2023-04-05T18:09:38.702Z,99351.16
2023-04-05T18:12:42.557Z,99349.66
2023-04-05T18:15:46.325Z,99351.44
2023-04-05T18:18:51.765Z,99359.50
2023-04-05T18:21:55.547Z,99369.19
2023-04-05T18:24:59.253Z,99366.22
2023-04-05T18:28:06.857Z,99368.09
2023-04-05T18:31:20.251Z,99363.31
2023-04-05T18:34:26.900Z,99368.44
2023-04-05T18:37:30.707Z,99375.66
2023-04-05T18:40:34.583Z,99379.56
2023-04-05T18:43:38.309Z,99381.63
2023-04-05T18:46:42.118Z,99384.81
2023-04-05T18:49:47.306Z,99394.13
2023-04-05T18:52:51.098Z,99397.53
2023-04-05T18:55:55.889Z,99398.63
2023-04-05T18:58:59.748Z,99393.22
2023-04-05T19:02:05.239Z,99397.41
2023-04-05T19:05:11.641Z,99403.06
2023-04-05T19:08:15.371Z,99401.06
2023-04-05T19:11:19.384Z,99410.34
2023-04-05T19:17:45.424Z,99406.31
2023-04-05T19:20:54.922Z,99405.00
2023-04-05T19:23:59.037Z,99391.38
2023-04-05T19:27:03.046Z,99408.97
2023-04-05T19:30:08.282Z,99401.59
2023-04-05T19:33:12.156Z,99398.53
2023-04-05T19:36:17.454Z,99397.78
2023-04-05T19:39:25.623Z,99403.31
2023-04-05T19:45:33.990Z,99402.06
2023-04-05T19:48:40.037Z,99411.41
2023-04-05T19:51:45.147Z,99399.38
2023-04-05T19:54:48.890Z,99398.59
2023-04-05T19:57:52.501Z,99394.22
2023-04-05T20:00:56.568Z,99400.69
2023-04-05T20:04:00.334Z,99397.66
2023-04-05T20:07:09.192Z,99397.06
2023-04-05T20:10:17.378Z,99403.94
2023-04-05T20:13:21.249Z,99402.56
2023-04-05T20:16:28.024Z,99400.25
2023-04-05T20:19:33.356Z,99395.59
2023-04-05T20:22:39.473Z,99401.47
2023-04-05T20:25:46.675Z,99402.13
2023-04-05T20:28:54.774Z,99387.28
2023-04-05T20:31:58.642Z,99399.00
2023-04-05T20:35:02.442Z,99404.59
2023-04-05T20:38:07.670Z,99406.75
2023-04-05T20:41:13.605Z,99408.47
2023-04-05T20:44:17.520Z,99399.75
2023-04-05T20:47:21.305Z,99411.06
2023-04-05T20:50:25.015Z,99411.19
2023-04-05T20:53:30.575Z,99409.53
2023-04-05T20:56:34.262Z,99415.09
2023-04-05T20:59:38.065Z,99412.38
2023-04-05T21:02:41.965Z,99405.81
2023-04-05T21:05:45.725Z,99409.88
2023-04-05T21:09:07.141Z,99415.06
2023-04-05T21:12:12.846Z,99408.16
2023-04-05T21:15:16.981Z,99414.75
2023-04-05T21:18:21.127Z,99423.19
2023-04-05T21:21:25.135Z,99426.28
2023-04-05T21:24:29.135Z,99426.97
2023-04-05T21:27:34.750Z,99419.22
2023-04-05T21:30:38.943Z,99415.78
2023-04-05T21:33:43.058Z,99415.31
2023-04-05T21:36:47.175Z,99416.88
2023-04-05T21:39:51.122Z,99411.81
2023-04-05T21:42:56.559Z,99412.63
2023-04-05T21:46:02.055Z,99405.78
2023-04-05T21:49:06.333Z,99414.59
2023-04-05T21:52:10.460Z,99406.00
2023-04-05T21:55:14.846Z,99398.66
2023-04-05T21:58:20.427Z,99408.84
2023-04-05T22:01:24.594Z,99414.84
2023-04-05T22:04:29.479Z,99412.63
2023-04-05T22:07:33.716Z,99414.16
2023-04-05T22:10:37.977Z,99416.00
2023-04-05T22:13:45.330Z,99417.09
2023-04-05T22:16:49.346Z,99410.28
2023-04-05T22:19:53.348Z,99404.97
2023-04-05T22:22:57.529Z,99407.09
2023-04-05T22:26:01.598Z,99404.84
2023-04-05T22:29:07.814Z,99402.50
2023-04-05T22:32:12.173Z,99404.59
2023-04-05T22:35:16.211Z,99389.78
2023-04-05T22:38:20.217Z,99395.41
2023-04-05T22:41:24.154Z,99399.50
2023-04-05T22:44:29.507Z,99396.00
2023-04-05T22:47:33.546Z,99394.47
2023-04-05T22:50:37.605Z,99389.31
2023-04-05T22:53:43.574Z,99394.72
2023-04-05T22:56:47.371Z,99391.91
2023-04-05T22:59:52.712Z,99391.91
2023-04-05T23:02:56.555Z,99383.78
2023-04-05T23:06:00.430Z,99385.44
2023-04-05T23:09:05.156Z,99384.03
2023-04-05T23:12:11.357Z,99375.31
2023-04-05T23:15:16.784Z,99381.31
2023-04-05T23:18:22.972Z,99387.88
2023-04-05T23:21:27.044Z,99380.38
2023-04-05T23:24:30.954Z,99380.25
2023-04-05T23:27:34.875Z,99374.25
2023-04-05T23:30:40.341Z,99379.78
2023-04-05T23:33:44.214Z,99377.66
2023-04-05T23:36:48.106Z,99363.19
2023-04-05T23:39:52.078Z,99372.59
2023-04-05T23:42:55.975Z,99355.78
2023-04-05T23:46:01.404Z,99361.44
2023-04-05T23:49:05.199Z,99360.38
2023-04-05T23:52:09.038Z,99346.53
2023-04-05T23:55:12.909Z,99346.91
2023-04-05T23:58:16.850Z,99342.03
